createdAt,value
2019-02-14T00:00:13.375Z,8.37
2019-02-14T00:02:42.533Z,8.03
2019-02-14T00:05:16.539Z,8.27
2019-02-14T00:07:42.665Z,9.17
2019-02-14T00:10:11.820Z,8.33
2019-02-14T00:12:40.975Z,8.17
2019-02-14T00:15:10.620Z,9.80
2019-02-14T00:17:39.943Z,8.77
2019-02-14T00:20:09.131Z,8.50
2019-02-14T00:22:38.339Z,7.93
2019-02-14T00:25:07.523Z,8.60
2019-02-14T00:27:36.662Z,9.93
2019-02-14T00:30:06.497Z,11.57
2019-02-14T00:32:35.736Z,10.43
2019-02-14T00:35:04.981Z,9.67
2019-02-14T00:37:34.094Z,13.77
2019-02-14T00:40:03.323Z,8.90
2019-02-14T00:42:32.502Z,8.43
2019-02-14T00:45:01.628Z,9.53
2019-02-14T00:47:30.783Z,8.20
2019-02-14T00:49:59.900Z,9.47
2019-02-14T00:52:29.045Z,10.60
2019-02-14T00:54:58.184Z,9.47
2019-02-14T00:57:27.312Z,10.53
2019-02-14T00:59:56.452Z,9.87
2019-02-14T01:02:25.563Z,11.80
2019-02-14T01:04:54.704Z,10.20
2019-02-14T01:07:23.854Z,9.50
2019-02-14T01:09:53.060Z,11.87
2019-02-14T01:12:22.149Z,10.43
2019-02-14T01:14:51.486Z,10.33
2019-02-14T01:17:20.601Z,10.70
2019-02-14T01:19:49.734Z,12.97
2019-02-14T01:22:18.910Z,10.20
2019-02-14T01:24:48.104Z,10.57
2019-02-14T01:27:17.235Z,10.13
2019-02-14T01:29:46.418Z,13.03
2019-02-14T01:32:15.626Z,9.33
2019-02-14T01:34:44.774Z,11.03
2019-02-14T01:37:13.894Z,9.83
2019-02-14T01:39:43.016Z,10.23
2019-02-14T01:42:12.146Z,9.27
2019-02-14T01:44:41.284Z,9.23
2019-02-14T01:47:10.382Z,8.67
2019-02-14T01:49:39.541Z,9.20
2019-02-14T01:52:08.674Z,9.17
2019-02-14T01:54:37.808Z,9.47
2019-02-14T01:57:06.930Z,9.53
2019-02-14T01:59:36.071Z,10.33
2019-02-14T02:02:05.646Z,9.07
2019-02-14T02:04:34.791Z,8.07
2019-02-14T02:07:04.710Z,8.63
2019-02-14T02:09:33.825Z,9.47
2019-02-14T02:12:02.973Z,8.90
2019-02-14T02:14:32.096Z,9.57
2019-02-14T02:17:01.268Z,9.03
2019-02-14T02:19:30.411Z,10.20
2019-02-14T02:21:59.560Z,10.70
2019-02-14T02:24:28.701Z,8.07
2019-02-14T02:26:57.828Z,9.13
2019-02-14T02:29:26.969Z,9.30
2019-02-14T02:31:56.073Z,10.13
2019-02-14T02:34:25.224Z,11.30
2019-02-14T02:36:54.354Z,9.97
2019-02-14T02:39:23.518Z,7.73
2019-02-14T02:41:54.097Z,9.17
2019-02-14T02:44:23.265Z,8.43
2019-02-14T02:46:52.409Z,13.57
2019-02-14T02:49:21.588Z,9.27
2019-02-14T02:51:50.714Z,10.43
2019-02-14T02:54:19.845Z,9.20
2019-02-14T02:56:48.962Z,11.87
2019-02-14T02:59:18.095Z,7.97
2019-02-14T03:01:47.281Z,8.67
2019-02-14T03:04:16.425Z,12.23
2019-02-14T03:06:45.559Z,9.30
2019-02-14T03:09:14.715Z,9.83
2019-02-14T03:11:43.841Z,9.93
2019-02-14T03:14:12.991Z,10.63
2019-02-14T03:16:42.173Z,11.37
2019-02-14T03:19:11.333Z,9.70
2019-02-14T03:21:40.471Z,10.23
2019-02-14T03:24:09.619Z,12.83
2019-02-14T03:26:38.726Z,10.50
2019-02-14T03:29:07.896Z,12.10
2019-02-14T03:31:37.016Z,10.17
2019-02-14T03:34:06.130Z,9.33
2019-02-14T03:36:35.246Z,11.03
2019-02-14T03:39:06.203Z,10.13
2019-02-14T03:41:35.439Z,11.27
2019-02-14T03:44:04.582Z,10.57
2019-02-14T03:46:33.693Z,9.73
2019-02-14T03:49:02.830Z,10.93
2019-02-14T03:51:31.952Z,10.00
2019-02-14T03:54:01.083Z,11.00
2019-02-14T03:56:31.387Z,11.47
2019-02-14T03:59:00.511Z,9.77
2019-02-14T04:01:29.623Z,8.67
2019-02-14T04:03:58.757Z,10.37
2019-02-14T04:06:27.899Z,9.60
2019-02-14T04:08:57.111Z,10.73
2019-02-14T04:11:26.265Z,10.97
2019-02-14T04:13:55.459Z,11.23
2019-02-14T04:16:24.871Z,13.60
2019-02-14T04:18:54.080Z,10.20
2019-02-14T04:21:23.233Z,12.17
2019-02-14T04:23:52.361Z,10.07
2019-02-14T04:26:21.629Z,12.90
2019-02-14T04:28:50.753Z,11.33
2019-02-14T04:31:19.875Z,11.90
2019-02-14T04:33:49.019Z,10.97
2019-02-14T04:36:18.134Z,10.60
2019-02-14T04:38:47.312Z,10.53
2019-02-14T04:41:16.488Z,9.63
2019-02-14T04:43:45.629Z,10.20
2019-02-14T04:46:14.759Z,11.13
2019-02-14T04:48:43.907Z,11.80
2019-02-14T04:51:13.165Z,11.10
2019-02-14T04:53:42.281Z,9.90
2019-02-14T04:56:11.425Z,11.20
2019-02-14T04:58:40.575Z,10.50
2019-02-14T05:01:09.687Z,9.83
2019-02-14T05:03:38.805Z,11.77
2019-02-14T05:06:08.012Z,9.47
2019-02-14T05:08:37.165Z,11.00
2019-02-14T05:11:06.302Z,10.10
2019-02-14T05:13:35.414Z,10.37
2019-02-14T05:16:04.536Z,11.17
2019-02-14T05:18:33.651Z,9.20
2019-02-14T05:21:02.830Z,12.20
2019-02-14T05:23:31.967Z,10.90
2019-02-14T05:26:01.209Z,10.27
2019-02-14T05:28:30.355Z,10.47
2019-02-14T05:30:59.544Z,10.43
2019-02-14T05:33:28.684Z,12.20
2019-02-14T05:35:57.909Z,10.13
2019-02-14T05:38:27.016Z,13.10
2019-02-14T05:40:56.204Z,10.33
2019-02-14T05:43:25.300Z,10.57
2019-02-14T05:45:54.515Z,9.20
2019-02-14T05:48:24.702Z,10.87
2019-02-14T05:50:53.902Z,9.37
2019-02-14T05:53:23.103Z,12.93
2019-02-14T05:55:52.248Z,11.37
2019-02-14T05:58:21.376Z,14.40
2019-02-14T06:00:50.528Z,10.43
2019-02-14T06:03:19.758Z,12.37
2019-02-14T06:05:49.026Z,9.63
2019-02-14T06:08:18.241Z,10.80
2019-02-14T06:10:47.366Z,12.40
2019-02-14T06:13:16.506Z,11.70
2019-02-14T06:15:45.640Z,10.80
2019-02-14T06:18:14.812Z,11.57
2019-02-14T06:20:43.954Z,9.97
2019-02-14T06:23:13.069Z,11.60
2019-02-14T06:25:42.364Z,9.60
2019-02-14T06:28:11.504Z,10.10
2019-02-14T06:30:40.632Z,9.37
2019-02-14T06:33:13.201Z,11.27
2019-02-14T06:35:42.270Z,14.63
2019-02-14T06:38:11.479Z,10.33
2019-02-14T06:40:40.636Z,11.43
2019-02-14T06:43:09.789Z,14.43
2019-02-14T06:45:38.972Z,12.07
2019-02-14T06:48:08.106Z,10.83
2019-02-14T06:50:37.310Z,13.77
2019-02-14T06:53:06.449Z,11.93
2019-02-14T06:55:35.592Z,10.83
2019-02-14T06:58:04.730Z,12.30
2019-02-14T07:00:33.867Z,10.40
2019-02-14T07:03:03.013Z,11.27
2019-02-14T07:05:32.217Z,11.33
2019-02-14T07:08:01.381Z,10.57
2019-02-14T07:10:30.526Z,15.27
2019-02-14T07:12:59.651Z,11.50
2019-02-14T07:15:28.756Z,13.60
2019-02-14T07:17:57.939Z,14.27
2019-02-14T07:20:27.180Z,12.70
2019-02-14T07:22:56.378Z,9.90
2019-02-14T07:25:25.677Z,10.17
2019-02-14T07:27:54.768Z,12.13
2019-02-14T07:30:24.071Z,11.30
2019-02-14T07:32:53.233Z,11.80
2019-02-14T07:35:22.357Z,15.37
2019-02-14T07:37:51.459Z,12.93
2019-02-14T07:40:20.999Z,14.80
2019-02-14T07:42:50.117Z,16.53
2019-02-14T07:45:19.283Z,12.60
2019-02-14T07:47:48.433Z,13.13
2019-02-14T07:50:17.588Z,13.63
2019-02-14T07:52:46.717Z,14.30
2019-02-14T07:55:15.995Z,12.23
2019-02-14T07:57:45.345Z,13.97
2019-02-14T08:00:14.659Z,11.87
2019-02-14T08:02:43.757Z,11.27
2019-02-14T08:05:12.998Z,10.40
2019-02-14T08:07:42.231Z,11.63
2019-02-14T08:10:12.478Z,11.77
2019-02-14T08:12:41.617Z,12.23
2019-02-14T08:15:12.424Z,11.90
2019-02-14T08:17:41.561Z,12.43
2019-02-14T08:20:11.196Z,13.33
2019-02-14T08:22:40.485Z,13.47
2019-02-14T08:25:10.906Z,13.07
2019-02-14T08:27:40.241Z,19.27
2019-02-14T08:30:11.525Z,12.80
2019-02-14T08:32:40.733Z,11.10
2019-02-14T08:35:09.859Z,14.43
2019-02-14T08:37:45.153Z,15.80
2019-02-14T08:40:12.980Z,14.03
2019-02-14T08:42:42.104Z,12.83
2019-02-14T08:45:11.713Z,11.93
2019-02-14T08:47:40.843Z,11.50
2019-02-14T08:50:10.007Z,11.33
2019-02-14T08:52:39.141Z,12.40
2019-02-14T08:55:09.910Z,11.67
2019-02-14T08:57:39.213Z,19.67
2019-02-14T09:00:10.334Z,14.20
2019-02-14T09:02:39.454Z,16.57
2019-02-14T09:05:08.828Z,13.80
2019-02-14T09:07:38.002Z,14.20
2019-02-14T09:10:08.814Z,16.00
2019-02-14T09:12:37.943Z,13.43
2019-02-14T09:15:07.786Z,14.80
2019-02-14T09:17:36.934Z,11.67
2019-02-14T09:20:07.441Z,14.00
2019-02-14T09:22:36.676Z,17.03
2019-02-14T09:25:06.063Z,13.80
2019-02-14T09:27:35.154Z,10.80
2019-02-14T09:30:04.502Z,12.90
2019-02-14T09:32:33.632Z,13.33
2019-02-14T09:35:02.767Z,16.70
2019-02-14T09:37:31.931Z,16.83
2019-02-14T09:40:01.087Z,13.00
2019-02-14T09:42:30.302Z,13.63
2019-02-14T09:44:59.434Z,11.80
2019-02-14T09:47:28.562Z,14.97
2019-02-14T09:49:57.781Z,14.90
2019-02-14T09:52:26.995Z,15.97
2019-02-14T09:54:56.134Z,11.97
2019-02-14T09:57:25.354Z,16.07
2019-02-14T09:59:54.564Z,11.83
2019-02-14T10:02:25.703Z,9.80
2019-02-14T10:04:54.518Z,11.33
2019-02-14T10:07:23.658Z,16.20
2019-02-14T10:09:52.862Z,11.03
2019-02-14T10:12:22.000Z,12.47
2019-02-14T10:14:51.160Z,13.67
2019-02-14T10:17:22.149Z,12.20
2019-02-14T10:19:51.131Z,12.63
2019-02-14T10:22:20.262Z,11.87
2019-02-14T10:24:49.427Z,10.20
2019-02-14T10:27:18.581Z,9.13
2019-02-14T10:29:47.690Z,9.90
2019-02-14T10:32:16.958Z,15.03
2019-02-14T10:34:46.086Z,9.53
2019-02-14T10:37:15.228Z,9.97
2019-02-14T10:39:44.368Z,11.20
2019-02-14T10:42:13.532Z,9.73
2019-02-14T10:44:42.701Z,10.57
2019-02-14T10:47:11.917Z,8.87
2019-02-14T10:49:41.024Z,8.67
2019-02-14T10:52:10.218Z,9.13
2019-02-14T10:54:39.324Z,9.10
2019-02-14T10:57:08.493Z,8.60
2019-02-14T10:59:37.618Z,8.33
2019-02-14T11:02:07.338Z,8.43
2019-02-14T11:04:36.529Z,8.13
2019-02-14T11:07:05.696Z,9.37
2019-02-14T11:09:34.808Z,7.97
2019-02-14T11:12:04.044Z,7.67
2019-02-14T11:14:33.164Z,8.13
2019-02-14T11:17:02.315Z,8.40
2019-02-14T11:19:31.521Z,11.33
2019-02-14T11:22:00.620Z,9.33
2019-02-14T11:24:29.735Z,8.50
2019-02-14T11:26:58.869Z,9.10
2019-02-14T11:29:27.964Z,8.77
2019-02-14T11:31:57.161Z,7.83
2019-02-14T11:34:26.287Z,8.77
2019-02-14T11:36:55.612Z,8.87
2019-02-14T11:39:24.753Z,8.97
2019-02-14T11:41:53.981Z,8.50
2019-02-14T11:44:23.076Z,7.63
2019-02-14T11:46:52.218Z,8.93
2019-02-14T11:49:21.316Z,11.43
2019-02-14T11:51:50.450Z,9.03
2019-02-14T11:54:19.580Z,10.97
2019-02-14T11:56:48.804Z,9.10
2019-02-14T11:59:17.951Z,11.13
2019-02-14T12:01:55.220Z,9.37
2019-02-14T12:04:18.881Z,8.93
2019-02-14T12:06:48.101Z,8.30
2019-02-14T12:09:17.369Z,7.90
2019-02-14T12:11:46.624Z,8.40
2019-02-14T12:14:15.691Z,6.90
2019-02-14T12:16:44.908Z,8.63
2019-02-14T12:19:14.010Z,7.73
2019-02-14T12:21:43.179Z,8.87
2019-02-14T12:24:12.285Z,16.27
2019-02-14T12:26:41.429Z,9.23
2019-02-14T12:29:10.538Z,7.90
2019-02-14T12:31:39.694Z,8.50
2019-02-14T12:34:08.783Z,7.47
2019-02-14T12:36:37.934Z,10.57
2019-02-14T12:39:10.874Z,6.90
2019-02-14T12:41:38.427Z,6.73
2019-02-14T12:44:07.571Z,10.27
2019-02-14T12:46:37.945Z,7.87
2019-02-14T12:49:07.309Z,5.57
2019-02-14T12:51:36.434Z,6.60
2019-02-14T12:54:05.577Z,6.17
2019-02-14T12:56:34.731Z,8.37
2019-02-14T12:59:03.861Z,5.93
2019-02-14T13:01:32.999Z,5.47
2019-02-14T13:04:02.141Z,6.13
2019-02-14T13:06:31.283Z,6.50
2019-02-14T13:09:00.423Z,5.43
2019-02-14T13:11:29.637Z,5.40
2019-02-14T13:13:58.751Z,5.17
2019-02-14T13:16:27.924Z,7.33
2019-02-14T13:18:57.063Z,6.40
2019-02-14T13:21:26.250Z,5.53
2019-02-14T13:23:55.355Z,7.37
2019-02-14T13:26:24.551Z,4.13
2019-02-14T13:28:53.661Z,5.27
2019-02-14T13:31:31.263Z,5.67
2019-02-14T13:33:53.713Z,7.30
2019-02-14T13:36:22.839Z,4.30
2019-02-14T13:38:51.954Z,6.67
2019-02-14T13:41:30.691Z,4.83
2019-02-14T13:43:52.379Z,7.27
2019-02-14T13:46:21.555Z,5.77
2019-02-14T13:48:50.742Z,4.53
2019-02-14T13:51:19.960Z,6.00
2019-02-14T13:53:49.186Z,3.97
2019-02-14T13:56:18.396Z,7.37
2019-02-14T13:58:47.514Z,5.43
2019-02-14T14:01:16.659Z,6.93
2019-02-14T14:03:45.813Z,5.90
2019-02-14T14:06:14.934Z,5.60
2019-02-14T14:08:44.072Z,5.47
2019-02-14T14:11:13.260Z,6.00
2019-02-14T14:13:42.461Z,8.63
2019-02-14T14:16:11.613Z,4.90
2019-02-14T14:18:40.764Z,4.73
2019-02-14T14:21:10.117Z,4.53
2019-02-14T14:23:39.268Z,5.90
2019-02-14T14:26:08.379Z,5.43
2019-02-14T14:28:37.567Z,5.87
2019-02-14T14:31:06.769Z,9.30
2019-02-14T14:33:35.915Z,5.70
2019-02-14T14:36:05.029Z,4.10
2019-02-14T14:38:34.167Z,3.77
2019-02-14T14:41:03.274Z,4.50
2019-02-14T14:43:40.268Z,7.97
2019-02-14T14:46:16.072Z,4.73
2019-02-14T14:48:45.301Z,3.90
2019-02-14T14:51:14.498Z,4.00
2019-02-14T14:53:43.651Z,5.40
2019-02-14T14:56:12.781Z,4.00
2019-02-14T14:58:41.931Z,4.10
2019-02-14T15:01:11.068Z,5.00
2019-02-14T15:03:40.793Z,5.27
2019-02-14T15:06:10.234Z,4.93
2019-02-14T15:08:39.474Z,3.37
2019-02-14T15:11:08.678Z,3.07
2019-02-14T15:13:38.040Z,3.30
2019-02-14T15:16:07.165Z,4.27
2019-02-14T15:18:36.310Z,4.20
2019-02-14T15:21:05.467Z,4.27
2019-02-14T15:23:34.614Z,4.83
2019-02-14T15:26:03.756Z,3.10
2019-02-14T15:28:32.929Z,4.83
2019-02-14T15:31:02.075Z,3.67
2019-02-14T15:33:31.288Z,3.33
2019-02-14T15:36:00.418Z,3.87
2019-02-14T15:38:29.597Z,4.10
2019-02-14T15:40:58.777Z,5.87
2019-02-14T15:43:27.962Z,3.83
2019-02-14T15:45:57.096Z,5.93
2019-02-14T15:48:26.254Z,3.33
2019-02-14T15:50:56.732Z,4.03
2019-02-14T15:53:26.033Z,3.83
2019-02-14T15:55:55.162Z,4.20
2019-02-14T15:58:24.405Z,3.20
2019-02-14T16:00:54.140Z,4.50
2019-02-14T16:03:23.463Z,6.97
2019-02-14T16:05:52.621Z,2.60
2019-02-14T16:08:22.283Z,4.93
2019-02-14T16:10:55.574Z,2.43
2019-02-14T16:13:23.636Z,5.57
2019-02-14T16:15:53.893Z,3.10
2019-02-14T16:18:25.200Z,5.90
2019-02-14T16:20:54.435Z,3.27
2019-02-14T16:23:23.608Z,2.87
2019-02-14T16:25:54.073Z,4.00
2019-02-14T16:28:24.129Z,3.60
2019-02-14T16:30:56.322Z,3.33
2019-02-14T16:33:24.203Z,4.10
2019-02-14T16:35:53.371Z,3.50
2019-02-14T16:38:22.516Z,4.10
2019-02-14T16:40:51.667Z,4.70
2019-02-14T16:43:20.966Z,3.63
2019-02-14T16:45:50.213Z,3.30
2019-02-14T16:48:19.409Z,5.37
2019-02-14T16:50:48.593Z,3.23
2019-02-14T16:53:17.747Z,3.07
2019-02-14T16:55:46.869Z,6.43
2019-02-14T16:58:15.996Z,3.27
2019-02-14T17:00:45.115Z,3.67
2019-02-14T17:03:14.271Z,2.67
2019-02-14T17:05:43.401Z,2.90
2019-02-14T17:08:12.572Z,2.50
2019-02-14T17:10:41.696Z,4.50
2019-02-14T17:13:10.906Z,4.80
2019-02-14T17:15:40.073Z,5.53
2019-02-14T17:18:09.204Z,6.17
2019-02-14T17:20:38.364Z,3.63
2019-02-14T17:23:07.515Z,3.60
2019-02-14T17:25:36.775Z,3.73
2019-02-14T17:28:06.043Z,4.50
2019-02-14T17:30:35.218Z,4.23
2019-02-14T17:33:04.418Z,3.97
2019-02-14T17:35:33.585Z,3.70
2019-02-14T17:38:02.811Z,4.13
2019-02-14T17:40:31.968Z,5.20
2019-02-14T17:43:01.142Z,3.63
2019-02-14T17:45:30.262Z,3.57
2019-02-14T17:47:59.456Z,3.07
2019-02-14T17:50:28.611Z,2.67
2019-02-14T17:52:57.763Z,3.33
2019-02-14T17:55:26.883Z,5.73
2019-02-14T17:57:56.041Z,3.20
2019-02-14T18:00:25.472Z,3.77
2019-02-14T18:02:54.659Z,5.03
2019-02-14T18:05:23.799Z,3.90
2019-02-14T18:07:53.083Z,7.03
2019-02-14T18:10:22.303Z,5.03
2019-02-14T18:12:51.435Z,6.37
2019-02-14T18:15:20.554Z,4.93
2019-02-14T18:17:49.671Z,5.63
2019-02-14T18:20:18.807Z,6.87
2019-02-14T18:22:47.956Z,10.27
2019-02-14T18:25:17.121Z,6.57
2019-02-14T18:27:46.270Z,7.53
2019-02-14T18:30:15.411Z,6.50
2019-02-14T18:32:44.517Z,5.70
2019-02-14T18:35:13.667Z,6.13
2019-02-14T18:37:42.823Z,5.33
2019-02-14T18:40:12.458Z,4.07
2019-02-14T18:42:42.069Z,5.57
2019-02-14T18:45:12.620Z,5.57
2019-02-14T18:47:41.784Z,4.37
2019-02-14T18:50:11.450Z,4.40
2019-02-14T18:52:40.742Z,4.73
2019-02-14T18:55:09.949Z,4.77
2019-02-14T18:57:39.137Z,7.77
2019-02-14T19:00:10.897Z,5.47
2019-02-14T19:02:40.039Z,6.73
2019-02-14T19:05:10.133Z,5.70
2019-02-14T19:07:39.279Z,6.83
2019-02-14T19:10:09.960Z,5.63
2019-02-14T19:12:39.160Z,3.97
2019-02-14T19:15:08.879Z,4.60
2019-02-14T19:17:38.112Z,5.50
2019-02-14T19:20:08.072Z,5.37
2019-02-14T19:22:37.330Z,4.83
2019-02-14T19:25:06.596Z,4.00
2019-02-14T19:27:35.761Z,5.23
2019-02-14T19:30:05.045Z,7.03
2019-02-14T19:32:34.328Z,6.27
2019-02-14T19:35:03.621Z,8.50
2019-02-14T19:37:32.861Z,9.23
2019-02-14T19:40:02.247Z,13.40
2019-02-14T19:42:31.433Z,11.30
2019-02-14T19:45:00.820Z,9.40
2019-02-14T19:47:30.474Z,11.37
2019-02-14T19:49:59.683Z,13.77
2019-02-14T19:52:28.915Z,7.00
2019-02-14T19:54:58.163Z,8.00
2019-02-14T19:57:27.401Z,6.63
2019-02-14T19:59:56.678Z,6.70
2019-02-14T20:02:25.863Z,9.07
2019-02-14T20:04:55.134Z,6.13
2019-02-14T20:07:24.362Z,5.10
2019-02-14T20:09:53.561Z,4.77
2019-02-14T20:12:22.724Z,5.50
2019-02-14T20:14:51.975Z,5.37
2019-02-14T20:17:21.126Z,4.97
2019-02-14T20:19:50.289Z,4.80
2019-02-14T20:22:19.488Z,6.00
2019-02-14T20:24:48.723Z,4.47
2019-02-14T20:27:18.025Z,4.90
2019-02-14T20:29:47.275Z,5.07
2019-02-14T20:32:16.569Z,3.93
2019-02-14T20:34:45.835Z,5.17
2019-02-14T20:37:15.047Z,4.93
2019-02-14T20:39:44.243Z,5.30
2019-02-14T20:42:13.525Z,4.70
2019-02-14T20:44:42.766Z,5.57
2019-02-14T20:47:11.892Z,5.27
2019-02-14T20:49:41.111Z,7.97
2019-02-14T20:52:10.379Z,6.10
2019-02-14T20:54:39.565Z,7.10
2019-02-14T20:57:08.694Z,8.97
2019-02-14T20:59:37.851Z,10.50
2019-02-14T21:02:07.139Z,8.63
2019-02-14T21:04:36.306Z,8.77
2019-02-14T21:07:05.605Z,7.70
2019-02-14T21:09:34.778Z,7.43
2019-02-14T21:12:04.032Z,7.93
2019-02-14T21:14:33.462Z,8.83
2019-02-14T21:17:02.840Z,7.57
2019-02-14T21:19:32.062Z,9.53
2019-02-14T21:22:01.866Z,7.57
2019-02-14T21:24:31.350Z,8.37
2019-02-14T21:27:00.564Z,7.33
2019-02-14T21:29:29.789Z,8.67
2019-02-14T21:31:59.009Z,8.50
2019-02-14T21:34:28.177Z,9.00
2019-02-14T21:36:57.328Z,8.27
2019-02-14T21:39:26.532Z,13.83
2019-02-14T21:42:17.579Z,8.47
2019-02-14T21:44:26.610Z,9.23
2019-02-14T21:46:55.741Z,9.53
2019-02-14T21:49:24.975Z,9.30
2019-02-14T21:51:54.172Z,8.80
2019-02-14T21:54:23.419Z,9.67
2019-02-14T21:56:52.669Z,7.23
2019-02-14T21:59:21.969Z,13.30
2019-02-14T22:01:51.181Z,11.90
2019-02-14T22:04:20.380Z,10.57
2019-02-14T22:06:49.638Z,8.43
2019-02-14T22:09:18.964Z,8.17
2019-02-14T22:11:48.151Z,7.87
2019-02-14T22:14:17.307Z,8.07
2019-02-14T22:16:46.447Z,10.00
2019-02-14T22:19:15.659Z,14.10
2019-02-14T22:21:44.865Z,8.47
2019-02-14T22:24:14.165Z,8.47
2019-02-14T22:26:43.271Z,6.93
2019-02-14T22:29:12.572Z,9.17
2019-02-14T22:31:41.694Z,8.40
2019-02-14T22:34:10.921Z,9.00
2019-02-14T22:36:40.036Z,8.90
2019-02-14T22:39:09.183Z,8.80
2019-02-14T22:41:38.332Z,8.23
2019-02-14T22:44:07.444Z,9.47
2019-02-14T22:46:36.668Z,10.47
2019-02-14T22:49:05.785Z,11.90
2019-02-14T22:51:35.014Z,11.57
2019-02-14T22:54:04.136Z,9.83
2019-02-14T22:56:33.279Z,9.60
2019-02-14T22:59:02.394Z,10.00
2019-02-14T23:01:31.604Z,9.33
2019-02-14T23:04:00.791Z,11.97
2019-02-14T23:06:31.184Z,11.53
2019-02-14T23:09:00.295Z,11.60
2019-02-14T23:11:29.528Z,11.33
2019-02-14T23:13:58.744Z,9.83
2019-02-14T23:16:27.900Z,10.27
2019-02-14T23:18:57.026Z,8.93
2019-02-14T23:21:26.255Z,10.17
2019-02-14T23:23:55.377Z,9.93
2019-02-14T23:26:24.531Z,9.20
2019-02-14T23:28:53.641Z,9.57
2019-02-14T23:31:22.778Z,9.40
2019-02-14T23:33:51.912Z,10.67
2019-02-14T23:36:21.056Z,9.73
2019-02-14T23:38:50.165Z,10.40
2019-02-14T23:41:19.292Z,8.13
2019-02-14T23:43:48.425Z,9.30
2019-02-14T23:46:17.569Z,10.47
2019-02-14T23:48:46.686Z,10.37
2019-02-14T23:51:15.838Z,9.57
2019-02-14T23:53:44.972Z,8.67
2019-02-14T23:56:14.120Z,10.57
2019-02-14T23:58:43.229Z,9.10
